Flugplatz Kufstein Langkampfen (LOIK)

Hier findest Du alle Informationen zum Flugplatz Kufstein Langkampfen (LOIK).

Informationen für Piloten zum Flugplatz Kufstein Langkampfen

Hier findest Du alle relevanten Informationen, die Du als Pilot benötigst, um Kufstein Langkampfen anzufliegen.

Flugplatz: Kufstein Langkampfen ICAO-Code: LOIK
Frequenz Turm: 122.375 Mhz GAFOR Gebiet: -
Frequenz Ground: 122.375 Mhz Mogas: ja
Platzrunde: SO 2600 ft Landegebühr: 8 €
Platzhöhe: Sunrise: 03:23 Uhr UTC
Pisten: 06/24 - 800 m x 20 m, GRAS Sunset: 19:10 Uhr UTC

Mitglieder, die in Kufstein Langkampfen fliegen

Flugwetter am Flugplatz Kufstein Langkampfen

Die METAR Information stammen aus EDMO (85.22 km entfernt).

METAR Code:
2020/06/08 12:20
EDMO 081220Z 03009KT 9999 SCT036 SCT049 15/08 Q1013

Flugschulen am Flugplatz Kufstein Langkampfen

Am Flugplatz Kufstein Langkampfen gibt es leider keine Flugschule.

Benachbarte Flugplätze und Flugschulen

Es gibt 7 weitere Flugplätze in einem Umkreis von 50 km um den Flugplatz Kufstein Langkampfen.

Jetzt anmelden

Passwort vergessen

Umfrage Archiv

Wären Rettungsgeräte keine Pflicht mehr, würdet Ihr Euer UL trotzdem mit einem ausstatten?

Ja
82.4 %
Nein
17.6 %
Stimmen: 199 | Diskussion
Anzeige: Roland Aircraft
Statistik Alle Mitglieder

Aktuell sind 33 Besucher online, davon 1 Mitglied und 32 Gäste.


Mitglieder online:
Nordseepilot 

Anzeige: VFR Sprechfunk Simulator


Anzeige: Pocket FMS